Time;durP1;ratioP1;P1;durP2;ratioP2;P2;SDS_P1;SDS_P2;PMS_P1;PMS_P2;Temp;Humidity;BMP_temperature;BMP_pressure;BME280_temperature;BME280_humidity;BME280_pressure;Samples;Min_cycle;Max_cycle;Signal;HPM_P1;HPM_P2
2022/06/23 00:01:17;;;;;;;38.72;13.88;;;;;;;19.64;100.00;97711.25;5004560;28;20128;-57
2022/06/23 00:03:44;;;;;;;38.50;16.15;;;;;;;19.28;100.00;97715.94;5005560;28;20033;-57
2022/06/23 00:06:33;;;;;;;48.40;17.05;;;;;;;19.21;100.00;97722.69;5003853;28;20156;-57
2022/06/23 00:08:59;;;;;;;39.75;15.93;;;;;;;19.18;100.00;97715.00;5006025;28;20075;-57
2022/06/23 00:11:26;;;;;;;40.15;15.45;;;;;;;19.21;100.00;97720.88;5003565;28;20033;-57
2022/06/23 00:14:02;;;;;;;38.13;15.90;;;;;;;19.23;100.00;97715.47;5007286;28;20028;-57
2022/06/23 00:16:27;;;;;;;38.58;15.00;;;;;;;19.11;100.00;97719.94;5004967;28;20101;-58
2022/06/23 00:18:53;;;;;;;50.20;17.23;;;;;;;19.10;100.00;97722.69;5003697;28;20573;-57
2022/06/23 00:21:27;;;;;;;44.13;16.50;;;;;;;19.16;100.00;97725.69;5004610;28;20094;-58
2022/06/23 00:24:00;;;;;;;45.53;16.05;;;;;;;19.13;100.00;97717.16;5004934;28;20068;-59
2022/06/23 00:26:30;;;;;;;43.05;16.92;;;;;;;18.93;100.00;97722.28;5005113;28;20099;-59
2022/06/23 00:29:03;;;;;;;44.00;16.52;;;;;;;18.93;100.00;97722.28;5004791;28;20030;-58
2022/06/23 00:31:37;;;;;;;41.17;14.93;;;;;;;18.97;100.00;97723.69;5005571;28;20056;-58
2022/06/23 00:34:23;;;;;;;44.63;15.00;;;;;;;18.94;100.00;97718.66;5005861;28;20517;-59
2022/06/23 00:37:02;;;;;;;44.45;16.77;;;;;;;18.78;100.00;97718.16;5003125;28;20045;-57
2022/06/23 00:39:41;;;;;;;48.42;16.58;;;;;;;18.69;100.00;97719.72;5003241;28;20105;-57
2022/06/23 00:42:36;;;;;;;39.80;16.50;;;;;;;18.66;100.00;97715.53;5005153;28;20108;-57
2022/06/23 00:45:10;;;;;;;46.22;17.23;;;;;;;18.69;100.00;97720.56;4998267;28;20029;-59
2022/06/23 00:47:50;;;;;;;47.55;16.40;;;;;;;18.67;100.00;97722.50;5010001;28;20049;-57
2022/06/23 00:50:24;;;;;;;31.95;13.07;;;;;;;18.81;100.00;97724.06;5009023;28;20030;-57
2022/06/23 00:53:04;;;;;;;41.60;13.80;;;;;;;18.85;100.00;97724.66;5010177;28;20044;-57
2022/06/23 00:55:40;;;;;;;42.78;14.85;;;;;;;18.71;100.00;97722.22;5009205;28;20033;-58
2022/06/23 00:58:20;;;;;;;43.05;15.48;;;;;;;18.52;100.00;97728.97;5007988;28;20785;-58
2022/06/23 01:00:49;;;;;;;41.35;15.27;;;;;;;18.58;100.00;97731.13;5005595;28;20038;-57
2022/06/23 01:03:15;;;;;;;47.13;16.73;;;;;;;18.48;100.00;97731.00;5009216;28;20757;-58
2022/06/23 01:05:52;;;;;;;44.33;15.77;;;;;;;18.48;100.00;97738.91;5010183;28;20139;-57
2022/06/23 01:09:03;;;;;;;43.55;15.52;;;;;;;18.62;100.00;97743.13;5011769;28;20051;-58
2022/06/23 01:12:10;;;;;;;49.70;15.48;;;;;;;18.73;100.00;97733.50;4997031;28;20472;-59
2022/06/23 01:15:01;;;;;;;40.13;14.95;;;;;;;18.84;100.00;97729.13;4992658;28;20077;-57
2022/06/23 01:17:42;;;;;;;45.47;15.93;;;;;;;18.67;100.00;97737.47;5008754;28;20948;-57
2022/06/23 01:20:34;;;;;;;57.67;17.17;;;;;;;18.58;100.00;97739.06;5006898;28;20481;-57
2022/06/23 01:23:14;;;;;;;42.05;14.30;;;;;;;18.92;100.00;97740.88;5007166;28;20025;-58
2022/06/23 01:26:01;;;;;;;45.78;16.85;;;;;;;18.81;100.00;97733.81;5007442;28;20088;-57
2022/06/23 01:28:35;;;;;;;52.83;17.52;;;;;;;18.56;100.00;97740.97;5009039;28;20057;-57
2022/06/23 01:31:12;;;;;;;43.50;17.52;;;;;;;18.45;100.00;97738.31;5006555;28;20026;-57
2022/06/23 01:33:50;;;;;;;48.70;17.20;;;;;;;18.23;100.00;97739.97;5009288;28;20034;-57
2022/06/23 01:36:57;;;;;;;44.17;16.42;;;;;;;18.25;100.00;97738.06;5006321;28;20064;-58
2022/06/23 01:39:27;;;;;;;48.25;16.73;;;;;;;18.36;100.00;97739.03;4999555;28;20041;-58
2022/06/23 01:42:13;;;;;;;50.10;17.15;;;;;;;18.71;100.00;97735.44;5006447;28;20100;-57
2022/06/23 01:44:50;;;;;;;42.63;16.58;;;;;;;18.66;100.00;97730.53;5007098;28;20029;-58
2022/06/23 01:47:34;;;;;;;43.85;17.05;;;;;;;18.57;100.00;97731.25;5009726;28;20041;-58
2022/06/23 01:50:14;;;;;;;54.17;18.38;;;;;;;18.61;100.00;97738.81;5006950;28;20074;-57
2022/06/23 01:52:45;;;;;;;40.65;16.20;;;;;;;18.56;100.00;97740.97;5007472;28;20045;-57
2022/06/23 01:55:18;;;;;;;51.50;18.77;;;;;;;18.34;100.00;97751.50;5006709;28;20034;-58
2022/06/23 01:57:55;;;;;;;48.97;18.55;;;;;;;18.50;100.00;97757.28;5008087;28;20083;-59
2022/06/23 02:00:26;;;;;;;44.88;17.73;;;;;;;18.54;100.00;97748.16;5007333;28;20627;-57
2022/06/23 02:02:58;;;;;;;47.85;18.13;;;;;;;18.73;100.00;97746.72;5008794;28;20720;-57
2022/06/23 02:05:56;;;;;;;53.67;18.65;;;;;;;18.85;100.00;97741.34;5008321;28;20037;-57
2022/06/23 02:08:45;;;;;;;49.10;19.38;;;;;;;18.94;100.00;97745.06;5009188;28;20030;-57
2022/06/23 02:11:21;;;;;;;47.22;18.50;;;;;;;18.95;100.00;97736.19;5005136;28;20067;-57
2022/06/23 02:13:59;;;;;;;53.67;19.13;;;;;;;18.71;100.00;97746.88;5009174;28;20029;-58
2022/06/23 02:16:38;;;;;;;64.53;21.35;;;;;;;18.54;100.00;97757.91;5007292;28;20042;-57
2022/06/23 02:19:11;;;;;;;57.25;19.02;;;;;;;18.41;100.00;97758.00;5006043;28;20041;-57
2022/06/23 02:21:46;;;;;;;41.40;16.38;;;;;;;18.29;100.00;97746.59;5006051;28;20129;-57
2022/06/23 02:24:30;;;;;;;52.78;17.55;;;;;;;18.76;100.00;97743.84;5006621;28;20056;-57
2022/06/23 02:27:12;;;;;;;90.90;21.30;;;;;;;18.36;100.00;97752.22;5005520;28;20133;-57
2022/06/23 02:30:02;;;;;;;62.53;19.77;;;;;;;18.79;100.00;97741.81;5007673;28;20036;-57
2022/06/23 02:32:58;;;;;;;56.85;18.50;;;;;;;18.82;100.00;97751.31;5006589;28;20215;-57
2022/06/23 02:35:46;;;;;;;63.60;20.00;;;;;;;18.71;100.00;97754.78;5006551;28;21076;-57
2022/06/23 02:38:23;;;;;;;62.97;19.58;;;;;;;18.50;100.00;97766.03;5004872;28;20760;-58
2022/06/23 02:40:51;;;;;;;61.67;20.15;;;;;;;18.60;100.00;97774.13;5005173;28;20048;-57
2022/06/23 02:43:41;;;;;;;54.00;19.33;;;;;;;18.73;100.00;97767.84;5008352;28;20129;-59
2022/06/23 02:46:07;;;;;;;55.83;18.25;;;;;;;19.01;100.00;97761.28;5004879;28;20037;-58
2022/06/23 02:48:55;;;;;;;64.63;19.45;;;;;;;18.82;100.00;97761.88;5005931;28;20141;-57
2022/06/23 02:51:29;;;;;;;52.80;18.15;;;;;;;19.06;100.00;97759.97;5005746;28;20747;-58
2022/06/23 02:54:06;;;;;;;77.47;21.17;;;;;;;18.07;100.00;97764.06;5006439;28;20097;-58
2022/06/23 02:56:39;;;;;;;58.88;19.70;;;;;;;18.42;100.00;97767.63;5006236;28;20057;-58
2022/06/23 02:59:11;;;;;;;68.75;20.60;;;;;;;18.43;100.00;97762.19;5004230;28;20033;-58
2022/06/23 03:01:41;;;;;;;63.45;21.20;;;;;;;18.53;100.00;97767.63;5005886;28;20037;-57
2022/06/23 03:04:14;;;;;;;67.63;21.20;;;;;;;18.66;100.00;97756.94;5005880;28;20593;-58
2022/06/23 03:07:00;;;;;;;54.97;17.52;;;;;;;18.67;100.00;97755.97;5005586;28;20123;-57
2022/06/23 03:09:35;;;;;;;76.07;21.98;;;;;;;18.54;100.00;97764.00;5004755;28;20683;-57
2022/06/23 03:12:13;;;;;;;71.88;21.80;;;;;;;18.45;100.00;97767.34;5006040;28;20626;-58
2022/06/23 03:15:06;;;;;;;62.20;21.08;;;;;;;18.31;100.00;97773.72;5006955;28;20041;-57
2022/06/23 03:17:34;;;;;;;;;;;;;;;18.22;100.00;97774.41;5006647;28;20610;-57
2022/06/23 03:20:23;;;;;;;84.88;22.27;;;;;;;18.14;100.00;97771.50;5005837;28;19913;-57
2022/06/23 03:22:55;;;;;;;62.20;20.75;;;;;;;18.39;100.00;97778.41;5005751;28;20044;-57
2022/06/23 03:25:23;;;;;;;66.30;22.23;;;;;;;18.52;100.00;97778.31;5004905;28;20119;-58
2022/06/23 03:28:04;;;;;;;55.80;19.65;;;;;;;18.87;100.00;97775.59;5006087;28;20037;-59
2022/06/23 03:30:45;;;;;;;62.05;19.15;;;;;;;18.70;100.00;97774.25;5003405;28;20045;-58
2022/06/23 03:33:20;;;;;;;58.50;19.85;;;;;;;18.69;100.00;97770.75;5002990;28;20060;-58
2022/06/23 03:35:52;;;;;;;61.55;21.30;;;;;;;18.45;100.00;97775.28;5006765;28;20043;-57
2022/06/23 03:41:37;;;;;;;45.40;16.25;;;;;;;19.15;100.00;97774.25;5003132;28;20687;-58
2022/06/23 03:44:27;;;;;;;67.97;21.17;;;;;;;18.79;100.00;97772.69;5005649;28;20057;-58
2022/06/23 03:46:58;;;;;;;65.53;21.73;;;;;;;18.63;100.00;97779.16;5005345;28;20037;-58
2022/06/23 03:49:47;;;;;;;53.05;19.42;;;;;;;18.97;100.00;97781.00;5004843;28;20614;-57
2022/06/23 03:52:20;;;;;;;73.15;22.08;;;;;;;19.10;100.00;97786.13;4964766;28;1134413;-59
2022/06/23 03:55:06;;;;;;;76.63;21.63;;;;;;;19.22;100.00;97777.25;5003611;28;20117;-58
2022/06/23 03:57:38;;;;;;;109.88;20.17;;;;;;;19.30;100.00;97788.06;5006299;28;20042;-59
2022/06/23 04:00:13;;;;;;;69.28;22.95;;;;;;;19.25;100.00;97782.28;5005425;28;20164;-59
2022/06/23 04:02:43;;;;;;;49.50;19.30;;;;;;;19.12;100.00;97794.81;5004327;28;20041;-58
2022/06/23 04:05:29;;;;;;;61.60;21.23;;;;;;;19.04;100.00;97800.69;5005078;28;20087;-57
2022/06/23 04:08:03;;;;;;;95.75;20.48;;;;;;;19.15;100.00;97802.47;5006669;28;20060;-58
2022/06/23 04:10:41;;;;;;;62.00;18.55;;;;;;;19.32;100.00;97807.28;5003535;28;20129;-57
2022/06/23 04:13:18;;;;;;;67.65;20.80;;;;;;;19.06;100.00;97812.84;5006444;28;20373;-58
2022/06/23 04:15:44;;;;;;;133.13;20.42;;;;;;;18.87;100.00;97820.50;5004355;28;20037;-58
2022/06/23 04:18:16;;;;;;;68.53;20.23;;;;;;;18.69;100.00;97818.31;5004902;28;20044;-58
2022/06/23 04:20:49;;;;;;;;;;;;;;;19.04;100.00;97814.75;5003608;28;20029;-58
2022/06/23 04:23:22;;;;;;;69.38;20.00;;;;;;;19.32;100.00;97807.28;5006839;28;19909;-58
2022/06/23 04:25:56;;;;;;;98.78;19.90;;;;;;;19.60;100.00;97805.06;5005082;28;20103;-57
2022/06/23 04:28:24;;;;;;;80.70;20.35;;;;;;;19.74;100.00;97802.16;5005890;28;20034;-58
2022/06/23 04:30:52;;;;;;;78.22;19.13;;;;;;;19.53;100.00;97799.41;5005460;28;20947;-58
2022/06/23 04:33:20;;;;;;;64.22;18.27;;;;;;;19.72;100.00;97803.22;5005757;28;20137;-57
2022/06/23 04:35:56;;;;;;;52.05;16.80;;;;;;;19.90;100.00;97788.50;5007032;28;20381;-58
2022/06/23 04:38:54;;;;;;;92.63;19.20;;;;;;;20.21;100.00;97789.44;5004551;28;20032;-58
2022/06/23 04:41:34;;;;;;;69.50;19.20;;;;;;;19.89;100.00;97793.91;4990410;28;20042;-58
2022/06/23 04:44:06;;;;;;;83.90;20.00;;;;;;;19.75;100.00;97809.13;5005873;28;20029;-60
2022/06/23 04:46:37;;;;;;;51.47;18.23;;;;;;;20.55;100.00;97797.19;5005405;28;20527;-57
2022/06/23 04:49:22;;;;;;;41.28;18.67;;;;;;;20.02;100.00;97810.47;5006265;28;20086;-58
2022/06/23 04:51:53;;;;;;;49.35;20.63;;;;;;;20.20;100.00;97801.00;5004550;28;20049;-57
2022/06/23 04:54:46;;;;;;;43.23;18.60;;;;;;;20.36;100.00;97812.94;5003663;28;20129;-59
2022/06/23 04:57:18;;;;;;;39.13;18.67;;;;;;;20.88;100.00;97807.69;5004150;28;20164;-58
2022/06/23 04:59:51;;;;;;;;;;;;;;;20.92;100.00;97803.81;5008015;28;20045;-58
2022/06/23 05:02:26;;;;;;;47.35;18.85;;;;;;;21.13;100.00;97807.25;5004070;28;19917;-58
2022/06/23 05:04:57;;;;;;;41.05;17.02;;;;;;;22.17;100.00;97798.09;5005460;28;20029;-58
2022/06/23 05:07:39;;;;;;;44.45;17.35;;;;;;;22.09;100.00;97790.81;5005969;28;20033;-58
2022/06/23 05:10:07;;;;;;;48.25;18.23;;;;;;;22.38;100.00;97796.13;5002609;28;20101;-59
2022/06/23 05:12:46;;;;;;;43.88;18.67;;;;;;;22.85;100.00;97788.16;5002767;28;20052;-57
2022/06/23 05:15:17;;;;;;;44.03;17.63;;;;;;;23.08;100.00;97778.00;5003611;28;20021;-59
2022/06/23 05:17:51;;;;;;;43.33;18.00;;;;;;;22.72;100.00;97779.69;5005140;28;20468;-58
2022/06/23 05:20:21;;;;;;;41.88;19.55;;;;;;;22.02;100.00;97795.84;5003296;28;20492;-58
2022/06/23 05:22:48;;;;;;;46.60;19.35;;;;;;;21.83;100.00;97801.16;5005618;28;20103;-57
2022/06/23 05:25:16;;;;;;;39.35;17.60;;;;;;;21.51;100.00;97816.34;5004364;28;20106;-58
2022/06/23 05:27:48;;;;;;;47.38;20.08;;;;;;;21.87;100.00;97815.81;5003844;28;20036;-58
2022/06/23 05:30:14;;;;;;;47.58;19.20;;;;;;;21.69;100.00;97816.50;5009968;28;20922;-58
2022/06/23 05:32:48;;;;;;;44.70;20.40;;;;;;;22.16;100.00;97820.31;5008893;28;20518;-59
2022/06/23 05:35:28;;;;;;;44.13;19.33;;;;;;;21.74;100.00;97814.28;5006640;28;20116;-58
2022/06/23 05:38:00;;;;;;;44.47;19.23;;;;;;;22.10;100.00;97819.03;5009349;28;20033;-58
2022/06/23 05:40:40;;;;;;;49.15;19.10;;;;;;;22.24;100.00;97791.19;5006507;28;20025;-58
2022/06/23 05:43:11;;;;;;;37.22;17.90;;;;;;;23.43;100.00;97794.22;5009504;28;20025;-59
2022/06/23 05:45:37;;;;;;;39.42;17.35;;;;;;;24.19;100.00;97782.34;5006618;28;20113;-58
2022/06/23 05:48:05;;;;;;;37.08;17.02;;;;;;;23.20;100.00;97789.31;5009844;28;20122;-58
2022/06/23 05:50:42;;;;;;;36.63;17.55;;;;;;;23.76;100.00;97797.22;5005362;28;20042;-58
2022/06/23 05:53:18;;;;;;;33.72;17.05;;;;;;;22.46;100.00;97806.88;5015352;28;20037;-58
2022/06/23 05:55:55;;;;;;;37.08;17.02;;;;;;;23.34;100.00;97795.09;5008025;28;20618;-58
2022/06/23 05:58:31;;;;;;;30.98;15.93;;;;;;;24.05;100.00;97787.22;5008581;28;20037;-59
2022/06/23 06:01:14;;;;;;;42.65;17.35;;;;;;;24.13;100.00;97804.25;5007039;28;20068;-59
2022/06/23 06:03:48;;;;;;;35.08;15.85;;;;;;;27.65;100.00;97771.09;5009109;28;20040;-59
2022/06/23 06:06:13;;;;;;;40.00;16.13;;;;;;;26.77;100.00;97777.50;5006512;28;20129;-59
2022/06/23 06:11:33;;;;;;;30.63;14.52;;;;;;;28.89;100.00;97774.41;5006641;28;20882;-58
2022/06/23 06:14:00;;;;;;;26.80;13.18;;;;;;;31.06;100.00;97765.44;5008193;28;20030;-58
2022/06/23 06:16:26;;;;;;;28.83;13.38;;;;;;;29.28;100.00;97773.34;5007125;28;20036;-58
2022/06/23 06:18:53;;;;;;;27.52;13.35;;;;;;;29.89;100.00;97764.13;5006346;28;20034;-59
2022/06/23 06:21:21;;;;;;;26.88;13.43;;;;;;;28.31;100.00;97765.28;5008165;28;20115;-58
2022/06/23 06:23:56;;;;;;;24.77;13.27;;;;;;;30.82;100.00;97762.16;5007117;28;20030;-58
2022/06/23 06:26:27;;;;;;;26.08;12.07;;;;;;;31.66;100.00;97766.50;5008726;28;20042;-58
2022/06/23 06:28:58;;;;;;;23.00;11.27;;;;;;;32.16;96.67;97766.19;5007053;28;20608;-59
2022/06/23 06:31:31;;;;;;;23.77;12.05;;;;;;;32.38;93.42;97771.41;5008939;28;20176;-59
2022/06/23 06:34:02;;;;;;;20.67;11.13;;;;;;;32.51;98.87;97763.28;5007411;28;20125;-59
2022/06/23 06:36:36;;;;;;;22.00;11.38;;;;;;;32.96;83.34;97760.75;5006015;28;20099;-60
2022/06/23 06:39:13;;;;;;;20.98;10.65;;;;;;;33.72;80.21;97763.81;5005376;28;20733;-58
2022/06/23 06:41:42;;;;;;;19.70;10.75;;;;;;;34.63;74.71;97759.78;5007059;28;20037;-59
2022/06/23 06:44:09;;;;;;;22.75;10.98;;;;;;;34.23;69.46;97762.84;5006689;28;20025;-57
2022/06/23 06:46:37;;;;;;;17.70;10.10;;;;;;;33.92;71.96;97758.25;5007184;28;20042;-60
2022/06/23 06:49:03;;;;;;;19.15;10.80;;;;;;;34.50;67.22;97758.03;5007969;28;20030;-59
2022/06/23 06:51:29;;;;;;;17.25;9.68;;;;;;;35.07;65.66;97752.47;5006449;28;20034;-58
2022/06/23 06:54:00;;;;;;;16.55;9.10;;;;;;;36.46;56.43;97756.16;5006123;28;20098;-59
2022/06/23 06:56:36;;;;;;;16.58;8.90;;;;;;;36.48;55.47;97748.59;5005748;28;20619;-57
2022/06/23 06:59:08;;;;;;;15.50;9.23;;;;;;;36.52;54.71;97744.34;5006681;28;20527;-57
2022/06/23 07:01:38;;;;;;;15.18;8.50;;;;;;;37.46;52.24;97756.16;5004489;28;20046;-58
2022/06/23 07:04:03;;;;;;;14.43;8.50;;;;;;;35.97;54.91;97753.59;5006489;28;20525;-59
2022/06/23 07:06:49;;;;;;;17.00;8.85;;;;;;;33.99;66.56;97749.03;5007367;28;20802;-58
2022/06/23 07:09:48;;;;;;;15.40;8.52;;;;;;;36.01;57.77;97752.06;5008213;28;20033;-59
2022/06/23 07:12:36;;;;;;;17.23;8.35;;;;;;;37.50;53.06;97754.59;4999240;28;20060;-59
2022/06/23 07:15:24;;;;;;;14.63;7.90;;;;;;;36.54;52.62;97747.69;5007425;28;20028;-58
2022/06/23 07:18:07;;;;;;;16.17;8.48;;;;;;;34.09;62.33;97745.84;5006797;28;20112;-60
2022/06/23 07:20:44;;;;;;;15.35;7.43;;;;;;;35.33;58.42;97747.81;5003585;28;20518;-59
2022/06/23 07:23:29;;;;;;;16.33;6.03;;;;;;;35.98;53.80;97743.56;5008385;28;20089;-59
2022/06/23 07:26:03;;;;;;;15.40;6.25;;;;;;;36.79;48.55;97738.47;5004842;28;21212;-59
2022/06/23 07:28:42;;;;;;;13.43;5.25;;;;;;;36.53;49.98;97737.88;5006878;28;20018;-59
2022/06/23 07:31:16;;;;;;;12.13;5.10;;;;;;;37.90;44.21;97746.41;5005903;28;20042;-58
2022/06/23 07:33:50;;;;;;;14.07;4.85;;;;;;;35.37;49.82;97743.56;5007645;28;20030;-60
2022/06/23 07:36:36;;;;;;;20.58;5.38;;;;;;;33.65;56.89;97741.38;5006067;28;20103;-59
2022/06/23 07:39:14;;;;;;;16.52;4.38;;;;;;;34.02;51.19;97736.94;5005967;28;20025;-59
2022/06/23 07:41:47;;;;;;;13.32;3.90;;;;;;;31.32;61.44;97741.31;5004856;28;20089;-59
2022/06/23 07:44:28;;;;;;;14.93;4.50;;;;;;;29.87;74.31;97739.25;5006071;28;20087;-58
2022/06/23 07:46:54;;;;;;;15.50;4.27;;;;;;;31.07;67.58;97737.47;5005371;28;20336;-58
2022/06/23 07:49:20;;;;;;;17.55;4.43;;;;;;;29.84;70.15;97740.47;5004809;28;20323;-58
2022/06/23 07:51:46;;;;;;;16.45;3.90;;;;;;;30.40;69.44;97734.34;5005533;28;20661;-58
2022/06/23 07:54:16;;;;;;;16.70;4.32;;;;;;;30.22;70.32;97747.41;5006187;28;20030;-58
2022/06/23 07:56:42;;;;;;;17.25;4.45;;;;;;;29.16;85.95;97747.97;5005930;28;20034;-58
2022/06/23 07:59:11;;;;;;;17.88;4.60;;;;;;;30.38;76.98;97738.28;5004182;28;20021;-58
2022/06/23 08:01:48;;;;;;;15.20;4.32;;;;;;;30.93;67.62;97740.13;5006196;28;20446;-58
2022/06/23 08:04:38;;;;;;;14.60;3.85;;;;;;;31.98;59.20;97742.53;5004479;28;20030;-58
2022/06/23 08:07:08;;;;;;;16.17;3.95;;;;;;;34.45;50.58;97743.50;5006638;28;20052;-58
2022/06/23 08:09:54;;;;;;;14.40;4.10;;;;;;;34.48;50.38;97737.63;5006693;28;20036;-58
2022/06/23 08:12:53;;;;;;;16.58;4.43;;;;;;;34.44;45.94;97733.72;5005131;28;20040;-58
2022/06/23 08:18:47;;;;;;;16.65;4.85;;;;;;;30.42;77.64;97729.63;4971378;28;20578;-59
2022/06/23 08:21:21;;;;;;;16.63;4.60;;;;;;;35.13;53.07;97729.88;5003847;28;20474;-58
2022/06/23 08:23:56;;;;;;;17.25;4.28;;;;;;;34.95;50.14;97730.69;5005754;28;20520;-58
2022/06/23 08:26:23;;;;;;;9.80;3.50;;;;;;;36.99;42.60;97725.31;5006031;28;20046;-59
2022/06/23 08:28:53;;;;;;;13.63;3.72;;;;;;;35.11;46.77;97723.84;5013763;28;20052;-58
2022/06/23 08:31:19;;;;;;;19.67;4.03;;;;;;;33.05;49.87;97726.22;5006505;28;20048;-58
2022/06/23 08:33:45;;;;;;;14.32;3.53;;;;;;;34.61;46.02;97728.53;5004357;28;20458;-59
2022/06/23 08:36:15;;;;;;;11.60;3.40;;;;;;;33.41;48.89;97724.84;5004103;28;20125;-58
2022/06/23 08:39:00;;;;;;;16.75;4.15;;;;;;;32.52;52.26;97716.38;5005107;28;20523;-59
2022/06/23 08:41:25;;;;;;;12.38;3.40;;;;;;;32.05;57.74;97724.47;5003587;28;20136;-59
2022/06/23 08:44:04;;;;;;;16.83;4.33;;;;;;;32.15;56.14;97720.53;5005668;28;20120;-58
2022/06/23 08:46:45;;;;;;;14.75;3.78;;;;;;;32.61;56.87;97715.13;5004536;28;20055;-58
2022/06/23 08:49:22;;;;;;;15.40;3.50;;;;;;;31.33;60.16;97707.91;5004763;28;20022;-58
2022/06/23 08:51:55;;;;;;;17.00;4.25;;;;;;;31.73;60.21;97711.78;5002271;28;20052;-58
2022/06/23 08:54:23;;;;;;;15.57;3.83;;;;;;;32.93;53.88;97717.13;5004096;28;20037;-57
2022/06/23 08:56:57;;;;;;;15.20;3.90;;;;;;;33.72;48.52;97705.13;5005066;28;20153;-58
2022/06/23 08:59:49;;;;;;;14.30;3.50;;;;;;;37.49;39.85;97704.00;5004533;28;20033;-58
2022/06/23 09:02:38;;;;;;;15.60;3.45;;;;;;;36.80;39.46;97693.94;5006449;28;20041;-59
2022/06/23 09:05:26;;;;;;;12.40;3.60;;;;;;;35.67;42.20;97688.50;5009722;28;20041;-58
2022/06/23 09:08:17;;;;;;;11.52;3.30;;;;;;;37.14;39.89;97696.78;5010161;28;20025;-60
2022/06/23 09:11:05;;;;;;;16.85;4.03;;;;;;;34.78;44.53;97696.31;5007054;28;20048;-59
2022/06/23 09:14:05;;;;;;;15.98;3.85;;;;;;;35.77;42.31;97691.50;5007596;28;20052;-59
2022/06/23 09:16:33;;;;;;;16.63;3.70;;;;;;;33.92;45.49;97699.56;4991598;28;20045;-59
2022/06/23 09:19:32;;;;;;;17.10;3.47;;;;;;;35.41;44.35;97690.53;5007748;28;20029;-58
2022/06/23 09:22:26;;;;;;;15.70;3.47;;;;;;;38.02;38.51;97691.88;5007328;28;20144;-59
2022/06/23 09:25:17;;;;;;;15.32;3.35;;;;;;;36.15;40.43;97689.41;5008913;28;20116;-58
2022/06/23 09:28:04;;;;;;;16.45;3.58;;;;;;;35.60;40.46;97690.47;5008601;28;20053;-59
2022/06/23 09:30:56;;;;;;;18.48;3.63;;;;;;;37.17;37.39;97696.34;5007319;28;20057;-59
2022/06/23 09:33:43;;;;;;;17.73;3.80;;;;;;;33.94;43.36;97696.66;5007009;28;20029;-59
2022/06/23 09:36:14;;;;;;;18.75;3.72;;;;;;;35.41;41.52;97687.81;5008034;28;20037;-59
2022/06/23 09:38:48;;;;;;;;;;;;;;;34.75;40.91;97693.00;5009365;28;20472;-59
2022/06/23 09:41:38;;;;;;;20.17;3.58;;;;;;;36.14;38.60;97685.88;5008488;28;19953;-59
2022/06/23 09:44:28;;;;;;;15.80;3.45;;;;;;;36.36;38.07;97682.59;5008315;28;20034;-58
2022/06/23 09:47:28;;;;;;;17.65;3.72;;;;;;;36.87;36.46;97691.88;5007983;28;20042;-58
2022/06/23 09:50:07;;;;;;;16.75;3.90;;;;;;;34.69;39.68;97677.66;4999055;28;20037;-58
2022/06/23 09:52:41;;;;;;;18.40;3.80;;;;;;;38.58;34.64;97678.31;5007092;28;20166;-59
2022/06/23 09:55:34;;;;;;;15.48;3.28;;;;;;;38.41;34.14;97674.78;5007402;28;20395;-59
2022/06/23 09:58:24;;;;;;;13.15;2.90;;;;;;;35.07;38.27;97663.03;5008945;28;20281;-59
2022/06/23 10:00:49;;;;;;;15.43;3.10;;;;;;;35.97;37.17;97665.91;5015110;28;20038;-58
2022/06/23 10:03:40;;;;;;;16.60;3.57;;;;;;;36.26;37.97;97659.56;5008074;28;20084;-59
2022/06/23 10:06:21;;;;;;;16.67;3.83;;;;;;;37.94;36.00;97656.94;5006827;28;20269;-60
2022/06/23 10:09:14;;;;;;;14.13;3.40;;;;;;;35.97;38.46;97649.63;5009810;28;20041;-58
2022/06/23 10:12:03;;;;;;;16.17;3.55;;;;;;;32.51;43.28;97652.59;5005939;28;20591;-59
2022/06/23 10:14:40;;;;;;;17.50;3.38;;;;;;;34.45;41.33;97649.56;5006643;28;20712;-58
2022/06/23 10:17:06;;;;;;;16.30;3.47;;;;;;;36.65;38.20;97649.03;5007435;28;20049;-59
2022/06/23 10:19:57;;;;;;;20.15;4.07;;;;;;;35.17;41.41;97648.94;5009064;28;20084;-60
2022/06/23 10:22:50;;;;;;;16.45;3.75;;;;;;;37.41;37.07;97648.94;5005931;28;20108;-59
2022/06/23 10:25:45;;;;;;;19.38;3.80;;;;;;;33.59;43.99;97646.53;5006765;28;20041;-58
2022/06/23 10:28:23;;;;;;;15.35;3.95;;;;;;;35.68;40.51;97638.63;5006169;28;20034;-58
2022/06/23 10:31:15;;;;;;;20.05;4.03;;;;;;;36.11;38.21;97645.63;5005341;28;20042;-58
2022/06/23 10:33:57;;;;;;;15.25;3.53;;;;;;;36.97;36.74;97634.22;5009203;28;20026;-58
2022/06/23 10:37:05;;;;;;;15.05;3.50;;;;;;;38.06;35.69;97635.84;5005065;28;20042;-58
2022/06/23 10:39:55;;;;;;;17.02;3.40;;;;;;;36.27;38.63;97617.81;5005554;28;20057;-58
2022/06/23 10:42:52;;;;;;;13.57;3.33;;;;;;;37.67;36.90;97624.09;5007716;28;20037;-59
2022/06/23 10:45:26;;;;;;;15.77;3.53;;;;;;;34.32;41.09;97622.66;5006642;28;20800;-59
2022/06/23 10:48:24;;;;;;;17.23;3.72;;;;;;;33.88;43.00;97627.19;5007676;28;20033;-58
2022/06/23 10:50:58;;;;;;;16.77;3.60;;;;;;;34.35;41.73;97622.19;4997539;28;20042;-58
2022/06/23 10:53:33;;;;;;;19.23;3.60;;;;;;;35.37;39.55;97621.56;5005953;28;20033;-58
2022/06/23 10:56:02;;;;;;;20.90;3.97;;;;;;;34.77;40.25;97616.09;5007242;28;20870;-58
2022/06/23 10:58:41;;;;;;;18.92;3.95;;;;;;;32.82;44.32;97624.09;5007308;28;20037;-58
2022/06/23 11:01:19;;;;;;;15.07;3.53;;;;;;;31.98;47.09;97629.25;5006471;28;20121;-59
2022/06/23 11:04:12;;;;;;;20.88;3.83;;;;;;;32.17;47.42;97610.56;5008987;28;20048;-58
2022/06/23 11:06:59;;;;;;;21.77;4.07;;;;;;;33.10;46.21;97620.19;5006049;28;20057;-59
2022/06/23 11:09:42;;;;;;;22.63;4.15;;;;;;;33.06;46.79;97617.09;5006183;28;20049;-58
2022/06/23 11:12:32;;;;;;;20.00;4.45;;;;;;;33.69;44.92;97607.38;5004593;28;20034;-58
2022/06/23 11:15:10;;;;;;;20.88;3.80;;;;;;;32.10;49.41;97604.34;5006900;28;20026;-59
2022/06/23 11:17:51;;;;;;;19.48;4.15;;;;;;;32.78;49.11;97604.78;5003991;28;20049;-58
2022/06/23 11:20:34;;;;;;;17.27;3.90;;;;;;;31.93;50.16;97604.75;5005865;28;20033;-57
2022/06/23 11:23:28;;;;;;;19.38;3.92;;;;;;;33.29;46.08;97596.81;5005565;28;20488;-57
2022/06/23 11:26:09;;;;;;;19.75;3.60;;;;;;;32.97;45.92;97588.69;5006211;28;20398;-60
2022/06/23 11:28:43;;;;;;;21.83;4.15;;;;;;;34.52;42.64;97595.31;5006569;28;20575;-57
2022/06/23 11:31:20;;;;;;;17.77;3.38;;;;;;;35.12;41.03;97595.38;5004752;28;20042;-58
2022/06/23 11:34:04;;;;;;;21.83;3.70;;;;;;;35.92;38.78;97585.22;5006607;28;20034;-58
2022/06/23 11:37:08;;;;;;;25.92;4.65;;;;;;;33.84;43.14;97583.53;5004450;28;20050;-57
2022/06/23 11:40:13;;;;;;;22.38;4.38;;;;;;;34.41;42.51;97582.53;4984678;28;20044;-57
2022/06/23 11:42:56;;;;;;;17.40;3.40;;;;;;;34.53;42.21;97575.31;5006236;28;20063;-58
2022/06/23 11:45:27;;;;;;;20.90;3.67;;;;;;;35.10;42.00;97570.41;5008213;28;20570;-58
2022/06/23 11:48:08;;;;;;;21.35;3.80;;;;;;;33.40;44.21;97578.03;5006381;28;20111;-57
2022/06/23 11:50:55;;;;;;;21.00;4.15;;;;;;;33.59;44.60;97570.81;5004188;28;20045;-58
2022/06/23 11:53:44;;;;;;;19.98;3.78;;;;;;;35.60;41.16;97574.66;5006000;28;20040;-58
2022/06/23 11:56:31;;;;;;;18.90;3.83;;;;;;;34.34;42.87;97572.63;5005576;28;20338;-58
2022/06/23 11:59:14;;;;;;;20.30;3.88;;;;;;;34.14;42.10;97572.00;5006170;28;20626;-57
2022/06/23 12:01:39;;;;;;;21.85;3.95;;;;;;;33.04;43.63;97565.16;5004447;28;20042;-57
2022/06/23 12:04:21;;;;;;;18.35;3.72;;;;;;;32.20;44.63;97566.97;5008042;28;20130;-60
2022/06/23 12:07:03;;;;;;;22.17;3.92;;;;;;;31.69;46.78;97560.41;5004243;28;20767;-58
2022/06/23 12:10:06;;;;;;;15.80;3.20;;;;;;;32.41;45.20;97558.59;5004977;28;20242;-57
2022/06/23 12:12:35;;;;;;;21.45;3.92;;;;;;;31.63;45.16;97562.06;4986549;28;20049;-58
2022/06/23 12:15:05;;;;;;;20.58;3.92;;;;;;;31.56;46.62;97553.16;5005497;28;20067;-57
2022/06/23 12:17:35;;;;;;;20.33;3.80;;;;;;;31.89;46.38;97554.97;5007476;28;20795;-57